createdAt,value
2023-04-15T00:01:00.013Z,100161.28
2023-04-15T00:03:29.016Z,100159.46
2023-04-15T00:05:58.645Z,100147.91
2023-04-15T00:08:27.408Z,100135.69
2023-04-15T00:10:55.767Z,100139.35
2023-04-15T00:13:24.306Z,100153.46
2023-04-15T00:15:52.945Z,100165.30
2023-04-15T00:18:21.343Z,100163.33
2023-04-15T00:20:49.669Z,100157.14
2023-04-15T00:23:18.294Z,100160.65
2023-04-15T00:25:47.611Z,100158.92
2023-04-15T00:28:16.107Z,100159.79
2023-04-15T00:30:45.468Z,100164.79
2023-04-15T00:33:14.991Z,100167.30
2023-04-15T00:35:43.522Z,100171.90
2023-04-15T00:38:12.459Z,100175.42
2023-04-15T00:40:41.560Z,100162.60
2023-04-15T00:43:10.319Z,100154.00
2023-04-15T00:45:39.640Z,100163.69
2023-04-15T00:48:09.726Z,100172.17
2023-04-15T00:50:38.261Z,100176.70
2023-04-15T00:53:06.664Z,100175.39
2023-04-15T00:55:36.358Z,100174.55
2023-04-15T00:58:05.044Z,100174.38
2023-04-15T01:00:33.527Z,100184.20
2023-04-15T01:03:02.169Z,100179.09
2023-04-15T01:05:31.532Z,100179.36
2023-04-15T01:08:00.185Z,100174.23
2023-04-15T01:10:28.738Z,100174.81
2023-04-15T01:12:57.530Z,100177.56
2023-04-15T01:15:27.718Z,100208.44
2023-04-15T01:17:58.089Z,100212.36
2023-04-15T01:20:27.679Z,100198.56
2023-04-15T01:22:56.356Z,100192.57
2023-04-15T01:25:33.362Z,100192.75
2023-04-15T01:28:02.381Z,100185.20
2023-04-15T01:30:35.068Z,100195.73
2023-04-15T01:33:03.636Z,100188.58
2023-04-15T01:35:32.437Z,100183.54
2023-04-15T01:38:08.619Z,100188.04
2023-04-15T01:40:37.317Z,100185.60
2023-04-15T01:43:05.551Z,100182.02
2023-04-15T01:45:33.964Z,100189.10
2023-04-15T01:48:06.053Z,100189.46
2023-04-15T01:50:34.514Z,100184.64
2023-04-15T01:53:03.046Z,100177.30
2023-04-15T01:55:31.958Z,100176.69
2023-04-15T01:58:00.523Z,100173.07
2023-04-15T02:00:29.146Z,100168.38
2023-04-15T02:02:57.867Z,100165.92
2023-04-15T02:05:27.983Z,100161.39
2023-04-15T02:07:56.561Z,100157.35
2023-04-15T02:10:25.283Z,100161.06
2023-04-15T02:12:54.631Z,100173.55
2023-04-15T02:15:23.401Z,100182.35
2023-04-15T02:17:55.613Z,100179.31
2023-04-15T02:20:24.199Z,100180.27
2023-04-15T02:22:52.778Z,100173.15
2023-04-15T02:25:21.170Z,100170.25
2023-04-15T02:27:49.641Z,100169.23
2023-04-15T02:30:18.844Z,100174.55
2023-04-15T02:32:47.738Z,100175.89
2023-04-15T02:35:16.096Z,100171.55
2023-04-15T02:37:46.010Z,100165.95
2023-04-15T02:40:14.694Z,100160.91
2023-04-15T02:42:44.417Z,100158.94
2023-04-15T02:45:14.754Z,100161.38
2023-04-15T02:47:44.666Z,100158.95
2023-04-15T02:50:13.758Z,100160.25
2023-04-15T02:52:43.612Z,100174.77
2023-04-15T02:55:12.853Z,100181.91
2023-04-15T02:57:41.652Z,100174.15
2023-04-15T03:00:12.083Z,100160.46
2023-04-15T03:02:47.506Z,100167.96
2023-04-15T03:05:16.413Z,100178.19
2023-04-15T03:07:51.354Z,100186.53
2023-04-15T03:10:20.977Z,100190.36
2023-04-15T03:12:49.747Z,100177.63
2023-04-15T03:15:19.992Z,100180.23
2023-04-15T03:17:51.264Z,100183.71
2023-04-15T03:20:19.944Z,100188.98
2023-04-15T03:22:49.782Z,100199.33
2023-04-15T03:25:18.492Z,100193.65
2023-04-15T03:27:46.975Z,100184.13
2023-04-15T03:30:16.786Z,100169.67
2023-04-15T03:32:45.283Z,100136.81
2023-04-15T03:35:14.613Z,100121.67
2023-04-15T03:37:43.090Z,100155.70
2023-04-15T03:40:12.219Z,100179.59
2023-04-15T03:42:40.865Z,100199.84
2023-04-15T03:45:09.551Z,100216.98
2023-04-15T03:47:37.949Z,100216.09
2023-04-15T03:50:07.504Z,100211.23
2023-04-15T03:52:36.068Z,100201.36
2023-04-15T03:55:04.822Z,100197.36
2023-04-15T03:57:38.185Z,100199.53
2023-04-15T04:00:07.528Z,100216.49
2023-04-15T04:02:40.531Z,100221.49
2023-04-15T04:05:09.649Z,100230.05
2023-04-15T04:07:37.940Z,100235.11
2023-04-15T04:10:07.434Z,100235.27
2023-04-15T04:12:36.147Z,100234.37
2023-04-15T04:15:05.268Z,100231.61
2023-04-15T04:17:34.094Z,100233.09
2023-04-15T04:20:02.724Z,100234.52
2023-04-15T04:22:31.239Z,100240.13
2023-04-15T04:25:00.696Z,100244.17
2023-04-15T04:27:29.301Z,100240.17
2023-04-15T04:29:57.673Z,100237.39
2023-04-15T04:32:26.384Z,100242.03
2023-04-15T04:34:55.058Z,100240.50
2023-04-15T04:37:23.846Z,100242.17
2023-04-15T04:39:52.321Z,100247.84
2023-04-15T04:42:21.027Z,100247.09
2023-04-15T04:44:49.411Z,100244.72
2023-04-15T04:47:17.884Z,100239.98
2023-04-15T04:49:46.416Z,100235.70
2023-04-15T04:52:14.973Z,100233.23
2023-04-15T04:54:43.632Z,100227.67
2023-04-15T04:57:13.902Z,100217.66
2023-04-15T04:59:42.322Z,100218.98
2023-04-15T05:02:11.094Z,100225.09
2023-04-15T05:04:39.594Z,100227.30
2023-04-15T05:07:08.618Z,100233.86
2023-04-15T05:09:37.374Z,100237.59
2023-04-15T05:12:06.302Z,100239.70
2023-04-15T05:14:35.029Z,100242.56
2023-04-15T05:17:03.630Z,100242.33
2023-04-15T05:19:32.088Z,100243.36
2023-04-15T05:22:01.080Z,100248.73
2023-04-15T05:24:29.742Z,100247.64
2023-04-15T05:26:58.160Z,100252.59
2023-04-15T05:29:26.716Z,100252.48
2023-04-15T05:31:55.099Z,100253.95
2023-04-15T05:34:23.599Z,100251.52
2023-04-15T05:36:52.735Z,100257.71
2023-04-15T05:39:21.589Z,100263.33
2023-04-15T05:41:49.950Z,100261.88
2023-04-15T05:44:18.672Z,100261.92
2023-04-15T05:46:47.344Z,100266.64
2023-04-15T05:49:15.733Z,100264.63
2023-04-15T05:51:44.503Z,100264.92
2023-04-15T05:54:12.838Z,100263.96
2023-04-15T05:56:41.333Z,100270.83
2023-04-15T05:59:09.858Z,100275.20
2023-04-15T06:01:38.540Z,100279.52
2023-04-15T06:04:07.097Z,100281.84
2023-04-15T06:06:35.554Z,100282.23
2023-04-15T06:09:04.917Z,100292.48
2023-04-15T06:11:33.485Z,100297.38
2023-04-15T06:14:01.825Z,100299.83
2023-04-15T06:16:30.246Z,100302.57
2023-04-15T06:18:58.837Z,100304.06
2023-04-15T06:21:27.425Z,100302.64
2023-04-15T06:23:56.799Z,100305.17
2023-04-15T06:26:25.211Z,100299.79
2023-04-15T06:28:53.721Z,100296.59
2023-04-15T06:31:22.479Z,100293.09
2023-04-15T06:33:50.893Z,100290.35
2023-04-15T06:36:19.756Z,100292.51
2023-04-15T06:38:48.319Z,100286.94
2023-04-15T06:41:16.857Z,100291.08
2023-04-15T06:43:45.656Z,100292.61
2023-04-15T06:46:14.865Z,100293.73
2023-04-15T06:48:43.316Z,100304.79
2023-04-15T06:51:12.008Z,100311.41
2023-04-15T06:53:42.148Z,100315.83
2023-04-15T06:56:11.114Z,100315.90
2023-04-15T06:58:39.630Z,100313.89
2023-04-15T07:01:08.177Z,100310.95
2023-04-15T07:03:36.807Z,100304.27
2023-04-15T07:06:07.049Z,100309.41
2023-04-15T07:08:35.508Z,100307.74
2023-04-15T07:11:03.869Z,100298.48
2023-04-15T07:13:32.931Z,100282.40
2023-04-15T07:16:01.499Z,100277.48
2023-04-15T07:18:29.873Z,100286.09
2023-04-15T07:20:58.695Z,100293.70
2023-04-15T07:23:27.751Z,100295.40
2023-04-15T07:25:57.140Z,100300.01
2023-04-15T07:28:25.818Z,100301.86
2023-04-15T07:30:54.157Z,100298.70
2023-04-15T07:33:23.117Z,100300.88
2023-04-15T07:35:51.582Z,100302.49
2023-04-15T07:38:20.052Z,100306.56
2023-04-15T07:40:48.632Z,100309.73
2023-04-15T07:43:17.316Z,100306.22
2023-04-15T07:45:45.655Z,100307.74
2023-04-15T07:48:14.200Z,100306.05
2023-04-15T07:50:43.088Z,100304.85
2023-04-15T07:53:11.547Z,100312.48
2023-04-15T07:55:40.024Z,100320.61
2023-04-15T07:58:08.553Z,100320.52
2023-04-15T08:00:38.625Z,100320.52
2023-04-15T08:03:08.034Z,100327.54
2023-04-15T08:05:36.596Z,100329.32
2023-04-15T08:08:05.140Z,100330.83
2023-04-15T08:10:33.600Z,100334.77
2023-04-15T08:13:02.058Z,100338.17
2023-04-15T08:15:31.598Z,100342.10
2023-04-15T08:18:01.346Z,100344.35
2023-04-15T08:20:30.205Z,100351.94
2023-04-15T08:22:58.676Z,100358.42
2023-04-15T08:25:27.550Z,100357.09
2023-04-15T08:27:58.264Z,100359.59
2023-04-15T08:30:26.856Z,100359.55
2023-04-15T08:32:55.432Z,100357.48
2023-04-15T08:35:24.021Z,100362.27
2023-04-15T08:37:52.399Z,100359.88
2023-04-15T08:40:23.684Z,100358.38
2023-04-15T08:42:55.002Z,100354.79
2023-04-15T08:45:23.616Z,100352.32
2023-04-15T08:47:56.635Z,100352.11
2023-04-15T08:50:26.568Z,100353.80
2023-04-15T08:52:56.616Z,100362.23
2023-04-15T08:55:30.519Z,100357.46
2023-04-15T08:57:59.213Z,100360.66
2023-04-15T09:00:27.921Z,100362.23
2023-04-15T09:02:57.340Z,100362.30
2023-04-15T09:05:25.900Z,100362.17
2023-04-15T09:07:54.353Z,100358.45
2023-04-15T09:10:22.825Z,100364.47
2023-04-15T09:12:51.343Z,100363.52
2023-04-15T09:15:20.445Z,100360.58
2023-04-15T09:17:49.234Z,100358.36
2023-04-15T09:20:21.180Z,100362.91
2023-04-15T09:22:50.472Z,100359.61
2023-04-15T09:25:25.031Z,100357.49
2023-04-15T09:27:59.383Z,100356.04
2023-04-15T09:30:30.813Z,100354.88
2023-04-15T09:33:02.677Z,100359.66
2023-04-15T09:35:31.235Z,100362.89
2023-04-15T09:38:05.515Z,100362.08
2023-04-15T09:40:43.202Z,100362.19
2023-04-15T09:43:14.746Z,100363.80
2023-04-15T09:46:32.332Z,100361.76
2023-04-15T09:49:11.307Z,100365.11
2023-04-15T09:51:40.054Z,100365.38
2023-04-15T09:54:08.421Z,100364.84
2023-04-15T09:56:39.090Z,100360.94
2023-04-15T09:59:08.774Z,100365.43
2023-04-15T10:01:37.399Z,100366.48
2023-04-15T10:04:07.041Z,100367.42
2023-04-15T10:06:36.504Z,100366.16
2023-04-15T10:09:06.753Z,100361.33
2023-04-15T10:11:35.928Z,100366.98
2023-04-15T10:14:05.354Z,100362.10
2023-04-15T10:16:36.167Z,100358.20
2023-04-15T10:19:07.527Z,100352.17
2023-04-15T10:21:38.017Z,100352.36
2023-04-15T10:24:07.270Z,100347.87
2023-04-15T10:26:35.889Z,100347.11
2023-04-15T10:29:05.085Z,100346.77
2023-04-15T10:31:34.146Z,100345.48
2023-04-15T10:34:06.735Z,100344.83
2023-04-15T10:36:35.472Z,100348.58
2023-04-15T10:39:43.496Z,100345.57
2023-04-15T10:42:16.880Z,100348.89
2023-04-15T10:44:48.964Z,100348.98
2023-04-15T10:47:20.530Z,100338.69
2023-04-15T10:49:50.640Z,100341.55
2023-04-15T10:52:27.785Z,100338.45
2023-04-15T10:55:26.605Z,100338.65
2023-04-15T10:58:01.172Z,100337.32
2023-04-15T11:00:31.948Z,100342.90
2023-04-15T11:03:10.283Z,100345.69
2023-04-15T11:05:41.911Z,100343.42
2023-04-15T11:08:12.084Z,100346.70
2023-04-15T11:10:40.556Z,100349.67
2023-04-15T11:13:11.821Z,100352.08
2023-04-15T11:15:45.183Z,100347.70
2023-04-15T11:18:30.933Z,100353.63
2023-04-15T11:21:59.224Z,100356.06
2023-04-15T11:24:27.814Z,100363.36
2023-04-15T11:26:59.961Z,100356.05
2023-04-15T11:29:34.655Z,100356.05
2023-04-15T11:32:10.193Z,100360.92
2023-04-15T11:34:38.836Z,100365.93
2023-04-15T11:37:08.135Z,100369.90
2023-04-15T11:39:37.759Z,100372.45
2023-04-15T11:42:17.489Z,100372.25
2023-04-15T11:44:46.080Z,100368.86
2023-04-15T11:47:24.746Z,100364.67
2023-04-15T11:50:19.850Z,100364.50
2023-04-15T11:52:58.229Z,100360.95
2023-04-15T11:55:26.728Z,100357.41
2023-04-15T11:58:15.083Z,100355.80
2023-04-15T12:00:50.500Z,100352.65
2023-04-15T12:03:30.609Z,100349.03
2023-04-15T12:06:21.238Z,100346.33
2023-04-15T12:08:56.282Z,100340.48
2023-04-15T12:11:27.649Z,100336.95
2023-04-15T12:14:05.503Z,100340.71
2023-04-15T12:16:48.008Z,100349.27
2023-04-15T12:19:24.629Z,100348.85
2023-04-15T12:22:00.050Z,100347.11
2023-04-15T12:24:32.299Z,100350.46
2023-04-15T12:27:05.872Z,100352.42
2023-04-15T12:29:36.321Z,100352.19
2023-04-15T12:32:10.522Z,100349.58
2023-04-15T12:34:40.558Z,100354.45
2023-04-15T12:37:11.034Z,100355.65
2023-04-15T12:39:42.160Z,100355.66
2023-04-15T12:42:11.839Z,100359.56
2023-04-15T12:44:40.764Z,100355.59
2023-04-15T12:47:10.419Z,100353.66
2023-04-15T12:49:39.865Z,100355.30
2023-04-15T12:52:08.528Z,100358.02
2023-04-15T12:54:37.014Z,100355.45
2023-04-15T12:57:07.283Z,100357.33
2023-04-15T12:59:36.673Z,100354.27
2023-04-15T13:02:05.642Z,100352.27
2023-04-15T13:04:34.204Z,100347.08
2023-04-15T13:08:02.418Z,100348.85
2023-04-15T13:10:31.721Z,100347.23
2023-04-15T13:13:00.271Z,100342.17
2023-04-15T13:15:29.109Z,100341.95
2023-04-15T13:17:57.688Z,100341.12
2023-04-15T13:20:27.200Z,100343.05
2023-04-15T13:22:55.935Z,100345.30
2023-04-15T13:25:24.718Z,100343.27
2023-04-15T13:27:53.010Z,100343.12
2023-04-15T13:30:21.602Z,100345.54
2023-04-15T13:32:51.401Z,100344.70
2023-04-15T13:35:21.315Z,100346.51
2023-04-15T13:37:49.923Z,100345.98
2023-04-15T13:40:20.230Z,100350.27
2023-04-15T13:42:48.910Z,100351.55
2023-04-15T13:45:17.384Z,100349.84
2023-04-15T13:47:46.107Z,100351.91
2023-04-15T13:50:14.456Z,100354.41
2023-04-15T13:52:42.766Z,100353.88
2023-04-15T13:55:20.418Z,100357.51
2023-04-15T13:58:38.350Z,100360.80
2023-04-15T14:01:07.543Z,100362.09
2023-04-15T14:03:36.982Z,100361.34
2023-04-15T14:06:06.582Z,100366.59
2023-04-15T14:08:35.215Z,100362.83
2023-04-15T14:11:03.765Z,100364.58
2023-04-15T14:13:32.406Z,100365.15
2023-04-15T14:16:01.100Z,100361.14
2023-04-15T14:18:30.608Z,100359.71
2023-04-15T14:20:59.200Z,100362.63
2023-04-15T14:23:27.654Z,100364.56
2023-04-15T14:25:56.269Z,100369.04
2023-04-15T14:28:25.106Z,100371.20
2023-04-15T14:30:53.633Z,100372.34
2023-04-15T14:33:22.189Z,100376.27
2023-04-15T14:35:51.498Z,100375.65
2023-04-15T14:38:20.154Z,100378.48
2023-04-15T14:40:48.655Z,100378.98
2023-04-15T14:43:17.294Z,100386.15
2023-04-15T14:45:45.798Z,100383.97
2023-04-15T14:48:14.292Z,100389.36
2023-04-15T14:50:42.971Z,100390.09
2023-04-15T14:53:11.268Z,100392.79
2023-04-15T14:55:39.769Z,100390.36
2023-04-15T14:58:10.932Z,100395.33
2023-04-15T15:00:42.100Z,100396.10
2023-04-15T15:03:15.063Z,100400.87
2023-04-15T15:05:46.490Z,100405.77
2023-04-15T15:08:14.932Z,100408.00
2023-04-15T15:10:49.167Z,100411.36
2023-04-15T15:13:19.487Z,100412.18
2023-04-15T15:15:49.816Z,100415.34
2023-04-15T15:18:19.404Z,100413.95
2023-04-15T15:20:48.409Z,100414.17
2023-04-15T15:23:16.969Z,100415.65
2023-04-15T15:25:47.102Z,100413.98
2023-04-15T15:28:15.798Z,100414.26
2023-04-15T15:30:44.124Z,100420.02
2023-04-15T15:33:12.589Z,100422.02
2023-04-15T15:35:41.268Z,100420.70
2023-04-15T15:38:12.250Z,100421.19
2023-04-15T15:40:40.804Z,100419.19
2023-04-15T15:43:09.327Z,100420.19
2023-04-15T15:45:37.712Z,100416.29
2023-04-15T15:48:06.620Z,100420.05
2023-04-15T15:50:35.254Z,100420.45
2023-04-15T15:53:03.721Z,100420.73
2023-04-15T15:55:32.035Z,100425.36
2023-04-15T15:58:00.417Z,100430.77
2023-04-15T16:00:29.068Z,100430.20
2023-04-15T16:05:29.830Z,100432.98
2023-04-15T16:07:58.110Z,100434.44
2023-04-15T16:10:26.599Z,100435.61
2023-04-15T16:12:55.722Z,100436.89
2023-04-15T16:15:26.290Z,100433.91
2023-04-15T16:17:54.689Z,100440.41
2023-04-15T16:20:23.570Z,100442.95
2023-04-15T16:22:52.016Z,100444.03
2023-04-15T16:25:20.502Z,100446.20
2023-04-15T16:28:27.178Z,100447.64
2023-04-15T16:34:51.184Z,100447.45
2023-04-15T16:37:20.986Z,100445.09
2023-04-15T16:40:49.210Z,100444.90
2023-04-15T16:44:17.479Z,100442.06
2023-04-15T16:47:50.904Z,100442.92
2023-04-15T16:50:19.410Z,100440.75
2023-04-15T16:52:47.793Z,100447.81
2023-04-15T16:55:16.475Z,100449.91
2023-04-15T16:58:00.439Z,100451.46
2023-04-15T17:00:32.270Z,100457.60
2023-04-15T17:03:01.268Z,100462.42
2023-04-15T17:05:31.308Z,100463.09
2023-04-15T17:07:59.817Z,100463.14
2023-04-15T17:10:28.642Z,100462.05
2023-04-15T17:12:58.388Z,100468.92
2023-04-15T17:15:27.471Z,100467.40
2023-04-15T17:17:56.266Z,100474.20
2023-04-15T17:20:26.674Z,100473.69
2023-04-15T17:22:55.169Z,100473.04
2023-04-15T17:25:23.863Z,100474.39
2023-04-15T17:28:20.651Z,100479.34
2023-04-15T17:30:49.538Z,100482.33
2023-04-15T17:33:56.100Z,100482.54
2023-04-15T17:36:06.347Z,100484.48
2023-04-15T17:38:34.830Z,100492.27
2023-04-15T17:41:03.231Z,100493.86
2023-04-15T17:43:32.216Z,100490.38
2023-04-15T17:46:00.904Z,100497.45
2023-04-15T17:48:29.362Z,100502.46
2023-04-15T17:50:57.876Z,100505.54
2023-04-15T17:53:26.546Z,100504.21
2023-04-15T17:55:55.865Z,100507.29
2023-04-15T17:58:24.229Z,100508.68
2023-04-15T18:00:52.657Z,100506.91
2023-04-15T18:03:22.163Z,100510.83
2023-04-15T18:05:50.794Z,100508.05
2023-04-15T18:08:19.273Z,100509.27
2023-04-15T18:10:47.845Z,100512.23
2023-04-15T18:13:16.384Z,100511.90
2023-04-15T18:15:46.911Z,100512.26
2023-04-15T18:18:16.078Z,100511.63
2023-04-15T18:20:44.557Z,100516.23
2023-04-15T18:23:14.615Z,100523.70
2023-04-15T18:25:43.921Z,100527.81
2023-04-15T18:28:12.414Z,100531.10
2023-04-15T18:30:40.955Z,100533.33
2023-04-15T18:33:09.496Z,100536.17
2023-04-15T18:35:37.929Z,100540.09
2023-04-15T18:38:06.302Z,100539.48
2023-04-15T18:40:36.140Z,100543.32
2023-04-15T18:43:04.556Z,100542.23
2023-04-15T18:45:33.031Z,100542.79
2023-04-15T18:48:02.706Z,100544.73
2023-04-15T18:50:31.269Z,100548.96
2023-04-15T18:52:59.838Z,100551.25
2023-04-15T18:55:28.236Z,100552.20
2023-04-15T18:57:56.875Z,100553.11
2023-04-15T19:00:41.707Z,100552.69
2023-04-15T19:03:11.463Z,100549.77
2023-04-15T19:05:40.287Z,100554.15
2023-04-15T19:08:08.984Z,100554.60
2023-04-15T19:10:37.803Z,100552.30
2023-04-15T19:13:06.592Z,100554.50
2023-04-15T19:15:35.017Z,100559.20
2023-04-15T19:18:05.458Z,100556.80
2023-04-15T19:20:37.179Z,100560.17
2023-04-15T19:23:06.957Z,100555.46
2023-04-15T19:25:35.535Z,100554.68
2023-04-15T19:28:04.116Z,100553.16
2023-04-15T19:30:33.156Z,100558.13
2023-04-15T19:33:01.596Z,100559.66
2023-04-15T19:35:30.053Z,100560.90
2023-04-15T19:37:58.680Z,100563.21
2023-04-15T19:40:27.177Z,100566.60
2023-04-15T19:42:55.598Z,100570.38
2023-04-15T19:45:24.136Z,100570.23
2023-04-15T19:47:53.773Z,100572.36
2023-04-15T19:50:26.130Z,100567.17
2023-04-15T19:52:54.564Z,100566.66
2023-04-15T19:55:22.969Z,100565.04
2023-04-15T19:57:51.462Z,100564.02
2023-04-15T20:00:20.071Z,100561.48
2023-04-15T20:02:48.788Z,100562.38
2023-04-15T20:05:17.443Z,100565.86
2023-04-15T20:07:48.530Z,100565.42
2023-04-15T20:10:16.880Z,100557.85
2023-04-15T20:12:49.665Z,100565.20
2023-04-15T20:15:23.887Z,100565.86
2023-04-15T20:17:52.617Z,100568.24
2023-04-15T20:20:21.593Z,100565.67
2023-04-15T20:22:50.008Z,100566.28
2023-04-15T20:25:18.567Z,100566.58
2023-04-15T20:27:46.969Z,100567.77
2023-04-15T20:30:15.776Z,100566.31
2023-04-15T20:32:44.357Z,100571.63
2023-04-15T20:35:13.103Z,100571.76
2023-04-15T20:37:44.082Z,100574.27
2023-04-15T20:40:12.527Z,100572.02
2023-04-15T20:42:43.271Z,100571.46
2023-04-15T20:45:11.899Z,100574.51
2023-04-15T20:47:40.336Z,100576.40
2023-04-15T20:50:09.465Z,100576.30
2023-04-15T20:52:38.832Z,100574.36
2023-04-15T20:55:07.830Z,100580.77
2023-04-15T20:57:36.167Z,100576.23
2023-04-15T21:00:05.420Z,100574.23
2023-04-15T21:02:33.951Z,100575.77
2023-04-15T21:05:02.569Z,100576.75
2023-04-15T21:07:31.096Z,100583.38
2023-04-15T21:09:59.500Z,100588.13
2023-04-15T21:12:27.928Z,100584.08
2023-04-15T21:14:56.425Z,100577.55
2023-04-15T21:17:25.626Z,100580.33
2023-04-15T21:19:53.969Z,100579.65
2023-04-15T21:22:22.289Z,100580.89
2023-04-15T21:24:50.839Z,100579.20
2023-04-15T21:27:19.329Z,100585.64
2023-04-15T21:29:47.820Z,100580.20
2023-04-15T21:32:16.227Z,100583.28
2023-04-15T21:34:44.746Z,100585.98
2023-04-15T21:37:13.297Z,100586.30
2023-04-15T21:39:41.688Z,100585.96
2023-04-15T21:42:10.084Z,100589.27
2023-04-15T21:44:38.564Z,100586.83
2023-04-15T21:47:07.222Z,100588.15
2023-04-15T21:49:35.917Z,100589.52
2023-04-15T21:52:04.799Z,100585.95
2023-04-15T21:54:33.554Z,100583.90
2023-04-15T21:57:02.063Z,100584.39
2023-04-15T21:59:30.541Z,100581.67
2023-04-15T22:01:59.131Z,100580.13
2023-04-15T22:04:27.846Z,100578.08
2023-04-15T22:06:59.828Z,100579.40
2023-04-15T22:09:28.671Z,100581.52
2023-04-15T22:11:59.500Z,100582.79
2023-04-15T22:14:28.523Z,100585.72
2023-04-15T22:16:57.305Z,100584.19
2023-04-15T22:19:26.251Z,100580.44
2023-04-15T22:21:54.712Z,100582.92
2023-04-15T22:24:38.498Z,100579.94
2023-04-15T22:27:09.042Z,100579.98
2023-04-15T22:29:37.624Z,100580.56
2023-04-15T22:32:06.345Z,100579.73
2023-04-15T22:34:35.210Z,100583.48
2023-04-15T22:37:03.994Z,100583.58
2023-04-15T22:39:32.432Z,100581.63
2023-04-15T22:42:02.240Z,100577.52
2023-04-15T22:44:30.751Z,100575.86
2023-04-15T22:46:59.212Z,100576.33
2023-04-15T22:49:27.836Z,100572.31
2023-04-15T22:51:56.602Z,100568.63
2023-04-15T22:54:25.061Z,100566.71
2023-04-15T22:56:53.506Z,100567.20
2023-04-15T22:59:21.835Z,100570.84
2023-04-15T23:01:50.497Z,100566.29
2023-04-15T23:04:23.572Z,100565.04
2023-04-15T23:06:54.682Z,100558.35
2023-04-15T23:09:23.166Z,100555.86
2023-04-15T23:11:51.710Z,100555.27
2023-04-15T23:14:20.054Z,100551.39
2023-04-15T23:16:48.513Z,100550.77
2023-04-15T23:19:16.965Z,100551.96
2023-04-15T23:21:45.801Z,100551.63
2023-04-15T23:24:14.299Z,100547.63
2023-04-15T23:26:43.010Z,100549.16
2023-04-15T23:29:11.748Z,100550.68
2023-04-15T23:31:41.773Z,100549.02
2023-04-15T23:34:10.323Z,100552.10
2023-04-15T23:36:38.628Z,100551.21
2023-04-15T23:39:07.513Z,100551.14
2023-04-15T23:41:36.781Z,100552.98
2023-04-15T23:44:05.480Z,100553.56
2023-04-15T23:46:33.991Z,100553.48
2023-04-15T23:49:02.465Z,100554.67
2023-04-15T23:51:30.921Z,100550.51
2023-04-15T23:53:59.555Z,100553.17
2023-04-15T23:56:27.999Z,100550.98
2023-04-15T23:58:56.369Z,100550.46
